createdAt,value
2017-03-30T00:00:02.133Z,41.11
2017-03-30T00:01:12.063Z,40.74
2017-03-30T00:02:21.672Z,40.94
2017-03-30T00:03:31.291Z,41.41
2017-03-30T00:04:40.901Z,41.2
2017-03-30T00:05:50.521Z,41.13
2017-03-30T00:07:00.769Z,41.41
2017-03-30T00:08:10.694Z,41.11
2017-03-30T00:09:20.934Z,41.32
2017-03-30T00:10:30.859Z,41.13
2017-03-30T00:11:41.103Z,41.22
2017-03-30T00:12:51.356Z,41.2
2017-03-30T00:14:01.598Z,41.11
2017-03-30T00:15:11.846Z,41.22
2017-03-30T00:16:22.090Z,41.32
2017-03-30T00:17:32.333Z,41.22
2017-03-30T00:18:41.947Z,41.13
2017-03-30T00:19:52.187Z,41.22
2017-03-30T00:21:02.110Z,41.13
2017-03-30T00:22:12.351Z,41.03
2017-03-30T00:23:21.653Z,41.68
2017-03-30T00:24:31.587Z,41.61
2017-03-30T00:25:41.200Z,41.51
2017-03-30T00:26:51.437Z,41.22
2017-03-30T00:28:01.376Z,41.51
2017-03-30T00:29:11.307Z,41.13
2017-03-30T00:30:21.551Z,41.32
2017-03-30T00:31:31.805Z,41.22
2017-03-30T00:32:41.735Z,41.22
2017-03-30T00:33:51.969Z,41.3
2017-03-30T00:35:01.580Z,41.61
2017-03-30T00:36:11.224Z,41.41
2017-03-30T00:37:20.526Z,41.61
2017-03-30T00:38:30.141Z,41.32
2017-03-30T00:39:40.071Z,41.32
2017-03-30T00:40:50.315Z,41.68
2017-03-30T00:42:00.556Z,41.32
2017-03-30T00:43:10.799Z,41.61
2017-03-30T00:44:20.737Z,41.51
2017-03-30T00:45:30.669Z,41.61
2017-03-30T00:46:40.288Z,41.51
2017-03-30T00:47:50.212Z,41.61
2017-03-30T00:49:00.449Z,41.22
2017-03-30T00:50:10.375Z,41.41
2017-03-30T00:51:20.610Z,41.41
2017-03-30T00:52:30.538Z,41.68
2017-03-30T00:53:40.503Z,41.61
2017-03-30T00:54:50.768Z,41.32
2017-03-30T00:56:00.693Z,41.89
2017-03-30T00:57:10.620Z,41.89
2017-03-30T00:58:20.548Z,41.88
2017-03-30T00:59:30.814Z,41.71
2017-03-30T01:00:40.738Z,41.51
2017-03-30T01:01:50.663Z,41.41
2017-03-30T01:03:00.288Z,41.8
2017-03-30T01:04:10.218Z,41.39
2017-03-30T01:05:20.454Z,41.8
2017-03-30T01:06:30.693Z,42.09
2017-03-30T01:07:40.934Z,41.39
2017-03-30T01:08:51.171Z,42.09
2017-03-30T01:10:01.410Z,42.09
2017-03-30T01:11:11.334Z,41.61
2017-03-30T01:12:21.579Z,41.61
2017-03-30T01:13:31.818Z,42.07
2017-03-30T01:14:41.747Z,41.78
2017-03-30T01:15:51.985Z,42.26
2017-03-30T01:17:01.920Z,41.88
2017-03-30T01:18:11.856Z,42.36
2017-03-30T01:19:21.789Z,42.55
2017-03-30T01:20:32.028Z,42.36
2017-03-30T01:21:41.645Z,42.16
2017-03-30T01:22:51.572Z,42.16
2017-03-30T01:24:01.219Z,42.07
2017-03-30T01:25:11.460Z,42.26
2017-03-30T01:26:21.703Z,42.07
2017-03-30T01:27:31.941Z,42.16
2017-03-30T01:28:41.874Z,42.16
2017-03-30T01:29:51.805Z,41.97
2017-03-30T01:31:01.732Z,41.88
2017-03-30T01:32:11.659Z,42.26
2017-03-30T01:33:21.901Z,41.97
2017-03-30T01:34:31.838Z,42.07
2017-03-30T01:35:41.772Z,42.26
2017-03-30T01:36:52.017Z,42.28
2017-03-30T01:38:02.256Z,41.89
2017-03-30T01:39:12.497Z,42.28
2017-03-30T01:40:22.110Z,42.19
2017-03-30T01:41:32.352Z,42.26
2017-03-30T01:42:42.281Z,42.16
2017-03-30T01:43:52.528Z,41.8
2017-03-30T01:45:02.764Z,42.07
2017-03-30T01:46:12.380Z,42.16
2017-03-30T01:47:22.305Z,42.16
2017-03-30T01:48:32.580Z,42.16
2017-03-30T01:49:42.200Z,41.97
2017-03-30T01:50:51.815Z,41.97
2017-03-30T01:52:02.097Z,41.97
2017-03-30T01:53:12.029Z,42.07
2017-03-30T01:54:22.266Z,42.16
2017-03-30T01:55:31.889Z,41.89
2017-03-30T01:56:41.813Z,42.36
2017-03-30T01:57:52.057Z,41.97
2017-03-30T01:59:01.989Z,41.68
2017-03-30T02:00:12.252Z,41.97
2017-03-30T02:01:22.183Z,42.46
2017-03-30T02:02:32.426Z,42.26
2017-03-30T02:03:42.666Z,41.88
2017-03-30T02:04:52.598Z,42.07
2017-03-30T02:06:02.843Z,42.16
2017-03-30T02:07:12.773Z,42.07
2017-03-30T02:08:23.013Z,41.97
2017-03-30T02:09:33.260Z,42.07
2017-03-30T02:10:43.492Z,42.16
2017-03-30T02:11:53.738Z,41.49
2017-03-30T02:13:03.684Z,41.97
2017-03-30T02:14:13.614Z,42.16
2017-03-30T02:15:23.536Z,41.97
2017-03-30T02:16:33.154Z,41.88
2017-03-30T02:17:43.075Z,42.36
2017-03-30T02:18:53.313Z,42.07
2017-03-30T02:20:03.558Z,41.97
2017-03-30T02:21:13.491Z,42.07
2017-03-30T02:22:23.749Z,42.16
2017-03-30T02:23:33.680Z,41.97
2017-03-30T02:24:43.923Z,42.26
2017-03-30T02:25:53.539Z,41.97
2017-03-30T02:27:03.465Z,42.07
2017-03-30T02:28:13.427Z,41.97
2017-03-30T02:29:23.039Z,41.97
2017-03-30T02:30:32.965Z,42.26
2017-03-30T02:31:42.898Z,41.97
2017-03-30T02:32:53.144Z,41.88
2017-03-30T02:34:03.385Z,42.16
2017-03-30T02:35:13.322Z,41.68
2017-03-30T02:36:23.561Z,42.07
2017-03-30T02:37:33.799Z,42.16
2017-03-30T02:38:43.723Z,41.78
2017-03-30T02:39:53.335Z,42.16
2017-03-30T02:41:03.574Z,42.07
2017-03-30T02:42:13.511Z,42.07
2017-03-30T02:43:23.750Z,42.26
2017-03-30T02:44:33.363Z,42.07
2017-03-30T02:45:43.288Z,42.16
2017-03-30T02:46:53.214Z,42.16
2017-03-30T02:48:03.162Z,42.26
2017-03-30T02:49:13.402Z,42.36
2017-03-30T02:50:23.642Z,42.07
2017-03-30T02:51:33.567Z,41.97
2017-03-30T02:52:43.500Z,42.16
2017-03-30T02:53:53.456Z,42.26
2017-03-30T02:55:03.696Z,41.68
2017-03-30T02:56:13.931Z,41.49
2017-03-30T02:57:23.856Z,41.68
2017-03-30T02:58:34.099Z,41.3
2017-03-30T02:59:44.033Z,42.36
2017-03-30T03:00:53.963Z,41.49
2017-03-30T03:02:04.203Z,41.3
2017-03-30T03:03:14.137Z,42.26
2017-03-30T03:04:24.064Z,41.68
2017-03-30T03:05:34.303Z,41.78
2017-03-30T03:06:44.249Z,41.49
2017-03-30T03:07:54.493Z,41.3
2017-03-30T03:09:04.732Z,41.59
2017-03-30T03:10:14.345Z,41.59
2017-03-30T03:11:24.593Z,41.59
2017-03-30T03:12:34.520Z,42.07
2017-03-30T03:13:44.446Z,41.88
2017-03-30T03:14:54.687Z,42.16
2017-03-30T03:16:04.622Z,42.07
2017-03-30T03:17:14.566Z,41.49
2017-03-30T03:18:24.179Z,42.16
2017-03-30T03:19:33.793Z,42.07
2017-03-30T03:20:44.040Z,41.97
2017-03-30T03:21:53.976Z,42.16
2017-03-30T03:23:03.606Z,41.39
2017-03-30T03:24:13.870Z,41.68
2017-03-30T03:25:23.798Z,42.16
2017-03-30T03:26:34.041Z,41.97
2017-03-30T03:27:43.976Z,42.07
2017-03-30T03:28:53.909Z,41.78
2017-03-30T03:30:03.835Z,41.39
2017-03-30T03:31:13.763Z,42.07
2017-03-30T03:32:23.697Z,41.49
2017-03-30T03:33:33.933Z,41.88
2017-03-30T03:34:43.548Z,41.49
2017-03-30T03:35:53.162Z,41.68
2017-03-30T03:37:03.091Z,41.78
2017-03-30T03:38:13.328Z,41.78
2017-03-30T03:39:22.632Z,42.16
2017-03-30T03:40:32.877Z,41.59
2017-03-30T03:41:42.808Z,42.16
2017-03-30T03:42:52.744Z,41.59
2017-03-30T03:44:02.693Z,42.16
2017-03-30T03:45:12.618Z,42.07
2017-03-30T03:46:22.231Z,42.07
2017-03-30T03:47:32.475Z,42.26
2017-03-30T03:48:42.406Z,42.26
2017-03-30T03:49:52.649Z,42.07
2017-03-30T03:51:02.280Z,41.78
2017-03-30T03:52:12.207Z,41.68
2017-03-30T03:53:22.134Z,41.68
2017-03-30T03:54:32.093Z,41.78
2017-03-30T03:55:42.016Z,41.97
2017-03-30T03:56:51.937Z,41.78
2017-03-30T03:58:01.549Z,41.78
2017-03-30T03:59:11.202Z,41.68
2017-03-30T04:00:21.444Z,41.68
2017-03-30T04:01:31.684Z,41.78
2017-03-30T04:02:41.927Z,41.68
2017-03-30T04:03:51.862Z,41.78
2017-03-30T04:05:01.499Z,41.49
2017-03-30T04:06:11.742Z,41.68
2017-03-30T04:07:21.684Z,41.68
2017-03-30T04:08:31.616Z,41.88
2017-03-30T04:09:41.864Z,41.59
2017-03-30T04:10:51.476Z,42.07
2017-03-30T04:12:01.091Z,41.88
2017-03-30T04:13:11.015Z,42.07
2017-03-30T04:14:20.942Z,41.88
2017-03-30T04:15:30.870Z,41.39
2017-03-30T04:16:40.486Z,41.78
2017-03-30T04:17:49.791Z,41.88
2017-03-30T04:18:59.404Z,41.97
2017-03-30T04:20:09.330Z,41.88
2017-03-30T04:21:19.290Z,41.78
2017-03-30T04:22:29.536Z,41.49
2017-03-30T04:23:39.470Z,41.88
2017-03-30T04:24:49.708Z,41.59
2017-03-30T04:25:59.977Z,41.68
2017-03-30T04:27:09.907Z,41.78
2017-03-30T04:28:20.142Z,41.88
2017-03-30T04:29:30.071Z,41.59
2017-03-30T04:30:40.319Z,41.59
2017-03-30T04:31:50.564Z,41.68
2017-03-30T04:33:00.502Z,41.59
2017-03-30T04:34:10.431Z,41.39
2017-03-30T04:35:20.355Z,41.39
2017-03-30T04:36:30.600Z,41.49
2017-03-30T04:37:40.527Z,41.49
2017-03-30T04:38:50.777Z,41.59
2017-03-30T04:40:00.393Z,41.59
2017-03-30T04:41:10.328Z,41.78
2017-03-30T04:42:19.934Z,41.59
2017-03-30T04:43:29.862Z,41.59
2017-03-30T04:44:40.114Z,41.59
2017-03-30T04:45:50.045Z,41.68
2017-03-30T04:47:00.292Z,41.68
2017-03-30T04:48:10.529Z,41.59
2017-03-30T04:49:20.142Z,41.59
2017-03-30T04:50:30.386Z,42.16
2017-03-30T04:51:40.012Z,41.68
2017-03-30T04:52:49.942Z,41.88
2017-03-30T04:53:59.888Z,41.78
2017-03-30T04:55:09.505Z,41.3
2017-03-30T04:56:19.748Z,41.49
2017-03-30T04:57:29.674Z,41.59
2017-03-30T04:58:39.607Z,41.59
2017-03-30T04:59:49.839Z,41.3
2017-03-30T05:01:00.080Z,41.68
2017-03-30T05:02:10.321Z,41.49
2017-03-30T05:03:20.247Z,41.68
2017-03-30T05:04:30.488Z,41.39
2017-03-30T05:05:40.421Z,41.39
2017-03-30T05:06:50.353Z,41.11
2017-03-30T05:07:59.969Z,41.49
2017-03-30T05:09:10.229Z,41.49
2017-03-30T05:10:19.853Z,41.97
2017-03-30T05:11:30.093Z,41.2
2017-03-30T05:12:40.027Z,41.78
2017-03-30T05:13:50.269Z,41.78
2017-03-30T05:15:00.206Z,41.49
2017-03-30T05:16:09.824Z,42.16
2017-03-30T05:17:19.757Z,41.88
2017-03-30T05:18:29.683Z,41.97
2017-03-30T05:19:39.618Z,41.68
2017-03-30T05:20:49.543Z,41.68
2017-03-30T05:21:59.788Z,42.07
2017-03-30T05:23:09.727Z,42.07
2017-03-30T05:24:19.650Z,41.68
2017-03-30T05:25:29.580Z,41.97
2017-03-30T05:26:38.890Z,41.97
2017-03-30T05:27:49.129Z,41.78
2017-03-30T05:28:59.371Z,41.68
2017-03-30T05:30:09.611Z,41.68
2017-03-30T05:31:19.851Z,42.07
2017-03-30T05:32:29.778Z,41.68
2017-03-30T05:33:39.416Z,41.68
2017-03-30T05:34:49.663Z,41.59
2017-03-30T05:35:59.907Z,41.68
2017-03-30T05:37:09.862Z,41.78
2017-03-30T05:38:20.124Z,41.59
2017-03-30T05:39:30.364Z,41.59
2017-03-30T05:40:40.612Z,42.07
2017-03-30T05:41:50.858Z,41.59
2017-03-30T05:43:01.104Z,41.59
2017-03-30T05:44:11.034Z,41.78
2017-03-30T05:45:20.969Z,41.59
2017-03-30T05:46:31.244Z,41.39
2017-03-30T05:47:41.172Z,41.78
2017-03-30T05:48:50.796Z,41.39
2017-03-30T05:50:00.408Z,41.59
2017-03-30T05:51:10.022Z,41.49
2017-03-30T05:52:19.640Z,41.68
2017-03-30T05:53:29.886Z,41.59
2017-03-30T05:54:39.816Z,41.59
2017-03-30T05:55:49.434Z,41.59
2017-03-30T05:56:59.047Z,41.68
2017-03-30T05:58:08.970Z,41.39
2017-03-30T05:59:18.896Z,41.68
2017-03-30T06:00:28.513Z,41.39
2017-03-30T06:01:38.461Z,42.16
2017-03-30T06:02:48.384Z,41.59
2017-03-30T06:03:58.632Z,41.68
2017-03-30T06:05:08.870Z,41.59
2017-03-30T06:06:18.794Z,41.78
2017-03-30T06:07:28.740Z,41.49
2017-03-30T06:08:39.011Z,41.68
2017-03-30T06:09:48.946Z,41.68
2017-03-30T06:10:59.197Z,42.16
2017-03-30T06:12:08.832Z,42.07
2017-03-30T06:13:19.080Z,41.59
2017-03-30T06:14:28.690Z,41.68
2017-03-30T06:15:38.622Z,41.11
2017-03-30T06:16:48.561Z,41.59
2017-03-30T06:17:58.177Z,41.68
2017-03-30T06:19:08.112Z,41.59
2017-03-30T06:20:18.049Z,42.07
2017-03-30T06:21:28.289Z,41.88
2017-03-30T06:22:38.531Z,42.16
2017-03-30T06:23:48.147Z,42.65
2017-03-30T06:24:58.385Z,42.16
2017-03-30T06:26:08.314Z,42.65
2017-03-30T06:27:18.559Z,42.65
2017-03-30T06:28:28.177Z,42.74
2017-03-30T06:29:38.420Z,43.13
2017-03-30T06:30:48.656Z,42.84
2017-03-30T06:31:58.890Z,43.03
2017-03-30T06:33:08.511Z,42.65
2017-03-30T06:34:18.127Z,42.84
2017-03-30T06:35:28.367Z,42.16
2017-03-30T06:36:38.615Z,42.07
2017-03-30T06:37:48.858Z,42.26
2017-03-30T06:38:58.153Z,42.26
2017-03-30T06:40:08.401Z,42.55
2017-03-30T06:41:18.333Z,42.55
2017-03-30T06:42:28.577Z,42.55
2017-03-30T06:43:38.505Z,42.74
2017-03-30T06:44:48.754Z,42.65
2017-03-30T06:45:58.683Z,42.84
2017-03-30T06:47:08.616Z,42.46
2017-03-30T06:48:18.862Z,42.65
2017-03-30T06:49:29.108Z,42.55
2017-03-30T06:50:39.044Z,42.74
2017-03-30T06:51:48.975Z,42.74
2017-03-30T06:52:59.218Z,42.65
2017-03-30T06:54:08.835Z,42.65
2017-03-30T06:55:18.447Z,42.84
2017-03-30T06:56:28.689Z,42.65
2017-03-30T06:57:38.944Z,42.65
2017-03-30T06:58:49.187Z,42.46
2017-03-30T06:59:59.434Z,42.74
2017-03-30T07:01:09.369Z,42.84
2017-03-30T07:02:18.984Z,42.84
2017-03-30T07:03:28.909Z,42.84
2017-03-30T07:04:38.857Z,42.93
2017-03-30T07:05:48.474Z,42.55
2017-03-30T07:06:58.086Z,42.93
2017-03-30T07:08:08.326Z,42.93
2017-03-30T07:09:17.943Z,42.93
2017-03-30T07:10:28.190Z,42.26
2017-03-30T07:11:37.806Z,42.46
2017-03-30T07:12:48.052Z,42.65
2017-03-30T07:13:57.983Z,42.93
2017-03-30T07:15:07.909Z,42.74
2017-03-30T07:16:18.156Z,42.65
2017-03-30T07:17:28.397Z,43.03
2017-03-30T07:18:38.323Z,42.74
2017-03-30T07:19:48.564Z,42.93
2017-03-30T07:20:58.491Z,42.65
2017-03-30T07:22:08.733Z,42.74
2017-03-30T07:23:18.344Z,42.84
2017-03-30T07:24:28.584Z,42.55
2017-03-30T07:25:38.825Z,42.65
2017-03-30T07:26:49.069Z,42.84
2017-03-30T07:27:59.007Z,42.65
2017-03-30T07:29:09.248Z,42.74
2017-03-30T07:30:19.186Z,42.46
2017-03-30T07:31:29.111Z,42.93
2017-03-30T07:32:39.037Z,42.55
2017-03-30T07:33:49.278Z,42.84
2017-03-30T07:34:59.206Z,42.55
2017-03-30T07:36:09.137Z,43.13
2017-03-30T07:37:19.386Z,43.03
2017-03-30T07:38:29.622Z,43.03
2017-03-30T07:39:39.237Z,43.13
2017-03-30T07:40:49.175Z,43.03
2017-03-30T07:41:59.112Z,42.74
2017-03-30T07:43:09.045Z,42.93
2017-03-30T07:44:19.286Z,42.84
2017-03-30T07:45:29.525Z,42.84
2017-03-30T07:46:39.453Z,42.74
2017-03-30T07:47:49.378Z,43.03
2017-03-30T07:48:58.992Z,43.13
2017-03-30T07:50:08.921Z,42.93
2017-03-30T07:51:18.851Z,43.32
2017-03-30T07:52:29.092Z,42.93
2017-03-30T07:53:38.398Z,43.51
2017-03-30T07:54:48.322Z,43.51
2017-03-30T07:55:58.568Z,43.61
2017-03-30T07:57:08.189Z,43.41
2017-03-30T07:58:18.423Z,43.41
2017-03-30T07:59:28.659Z,43.61
2017-03-30T08:00:38.915Z,43.61
2017-03-30T08:01:49.167Z,43.51
2017-03-30T08:02:59.098Z,43.41
2017-03-30T08:04:09.066Z,43.41
2017-03-30T08:05:19.308Z,43.13
2017-03-30T08:06:29.550Z,43.51
2017-03-30T08:07:39.795Z,43.51
2017-03-30T08:08:50.036Z,43.61
2017-03-30T08:09:59.962Z,43.32
2017-03-30T08:11:09.580Z,43.51
2017-03-30T08:12:19.512Z,43.8
2017-03-30T08:13:29.746Z,43.41
2017-03-30T08:14:39.677Z,43.03
2017-03-30T08:15:49.605Z,42.93
2017-03-30T08:16:59.219Z,43.32
2017-03-30T08:18:09.457Z,43.44
2017-03-30T08:19:19.075Z,42.93
2017-03-30T08:20:29.321Z,43.51
2017-03-30T08:21:39.253Z,43.61
2017-03-30T08:22:49.505Z,43.61
2017-03-30T08:23:59.431Z,43.51
2017-03-30T08:25:09.673Z,43.61
2017-03-30T08:26:19.944Z,43.8
2017-03-30T08:27:30.183Z,43.41
2017-03-30T08:28:39.485Z,43.51
2017-03-30T08:29:49.722Z,43.51
2017-03-30T08:30:59.960Z,43.15
2017-03-30T08:32:10.214Z,43.05
2017-03-30T08:33:20.143Z,43.05
2017-03-30T08:34:30.068Z,43.41
2017-03-30T08:35:39.998Z,43.61
2017-03-30T08:36:50.238Z,43.41
2017-03-30T08:38:00.479Z,43.51
2017-03-30T08:39:09.476Z,43.51
2017-03-30T08:40:19.721Z,43.51
2017-03-30T08:41:29.970Z,43.71
2017-03-30T08:42:40.217Z,43.51
2017-03-30T08:43:50.144Z,43.51
2017-03-30T08:45:00.071Z,43.13
2017-03-30T08:46:10.327Z,43.23
2017-03-30T08:47:20.253Z,43.41
2017-03-30T08:48:30.504Z,43.51
2017-03-30T08:49:40.742Z,43.61
2017-03-30T08:50:51.236Z,43.61
2017-03-30T08:52:01.486Z,43.41
2017-03-30T08:53:11.736Z,43.41
2017-03-30T08:54:22.011Z,43.41
2017-03-30T08:55:31.628Z,43.51
2017-03-30T08:56:41.554Z,43.51
2017-03-30T08:57:51.790Z,43.51
2017-03-30T08:59:02.031Z,43.32
2017-03-30T09:00:11.963Z,43.32
2017-03-30T09:01:22.214Z,43.51
2017-03-30T09:02:32.478Z,43.61
2017-03-30T09:03:42.720Z,43.61
2017-03-30T09:04:52.969Z,43.32
2017-03-30T09:06:03.216Z,43.41
2017-03-30T09:07:13.151Z,43.51
2017-03-30T09:08:23.401Z,43.71
2017-03-30T09:09:33.020Z,43.23
2017-03-30T09:10:42.952Z,43.13
2017-03-30T09:11:53.194Z,43.13
2017-03-30T09:13:03.436Z,43.54
2017-03-30T09:14:13.360Z,43.51
2017-03-30T09:15:23.602Z,43.51
2017-03-30T09:16:33.529Z,43.54
2017-03-30T09:17:43.768Z,43.51
2017-03-30T09:18:54.009Z,43.54
2017-03-30T09:20:04.255Z,43.71
2017-03-30T09:21:14.502Z,43.9
2017-03-30T09:22:24.121Z,43.99
2017-03-30T09:23:34.060Z,43.9
2017-03-30T09:24:43.686Z,43.8
2017-03-30T09:25:53.302Z,43.8
2017-03-30T09:27:03.233Z,43.9
2017-03-30T09:28:13.159Z,43.9
2017-03-30T09:29:22.773Z,43.9
2017-03-30T09:30:32.431Z,43.99
2017-03-30T09:31:42.713Z,43.9
2017-03-30T09:32:52.645Z,44.31
2017-03-30T09:34:02.882Z,43.8
2017-03-30T09:35:12.490Z,43.82
2017-03-30T09:36:22.738Z,43.44
2017-03-30T09:37:32.674Z,43.63
2017-03-30T09:38:42.605Z,43.44
2017-03-30T09:39:52.531Z,43.82
2017-03-30T09:41:02.145Z,43.92
2017-03-30T09:42:12.423Z,43.92
2017-03-30T09:43:22.358Z,43.82
2017-03-30T09:44:32.594Z,43.82
2017-03-30T09:45:42.835Z,43.82
2017-03-30T09:46:53.076Z,43.73
2017-03-30T09:48:03.324Z,43.61
2017-03-30T09:49:13.555Z,43.92
2017-03-30T09:50:23.481Z,43.54
2017-03-30T09:51:33.419Z,44.11
2017-03-30T09:52:43.656Z,44.09
2017-03-30T09:53:53.282Z,43.99
2017-03-30T09:55:03.210Z,44.02
2017-03-30T09:56:13.459Z,43.92
2017-03-30T09:57:23.392Z,44.21
2017-03-30T09:58:33.634Z,44.31
2017-03-30T09:59:43.561Z,44.21
2017-03-30T10:00:53.805Z,43.63
2017-03-30T10:02:04.042Z,44.38
2017-03-30T10:03:13.974Z,44.31
2017-03-30T10:04:23.907Z,43.63
2017-03-30T10:05:33.838Z,43.92
2017-03-30T10:06:43.778Z,43.73
2017-03-30T10:07:54.039Z,43.8
2017-03-30T10:09:03.986Z,43.92
2017-03-30T10:10:13.604Z,43.82
2017-03-30T10:11:23.842Z,44.02
2017-03-30T10:12:33.782Z,44.02
2017-03-30T10:13:44.029Z,43.92
2017-03-30T10:14:53.968Z,43.82
2017-03-30T10:16:04.209Z,43.92
2017-03-30T10:17:14.136Z,44.11
2017-03-30T10:18:23.759Z,43.73
2017-03-30T10:19:33.698Z,43.92
2017-03-30T10:20:44.201Z,44.02
2017-03-30T10:21:54.311Z,44.11
2017-03-30T10:23:04.865Z,43.92
2017-03-30T10:24:15.053Z,44.31
2017-03-30T10:25:25.251Z,44.31
2017-03-30T10:26:35.746Z,44.02
2017-03-30T10:27:46.006Z,44.11
2017-03-30T10:28:56.513Z,43.82
2017-03-30T10:30:06.689Z,44.02
2017-03-30T10:31:16.620Z,43.92
2017-03-30T10:32:26.796Z,44.11
2017-03-30T10:33:37.373Z,43.92
2017-03-30T10:34:48.024Z,43.63
2017-03-30T10:35:58.639Z,43.82
2017-03-30T10:37:09.113Z,43.92
2017-03-30T10:38:19.309Z,43.82
2017-03-30T10:39:29.540Z,43.92
2017-03-30T10:40:39.351Z,44.11
2017-03-30T10:41:49.388Z,43.92
2017-03-30T10:42:59.372Z,43.82
2017-03-30T10:44:09.880Z,43.54
2017-03-30T10:45:19.210Z,43.92
2017-03-30T10:46:29.543Z,44.02
2017-03-30T10:47:39.419Z,43.92
2017-03-30T10:48:49.286Z,44.02
2017-03-30T10:49:59.816Z,43.82
2017-03-30T10:51:09.677Z,43.92
2017-03-30T10:52:19.365Z,44.02
2017-03-30T10:53:28.493Z,44.31
2017-03-30T10:54:38.799Z,43.73
2017-03-30T10:55:49.244Z,43.82
2017-03-30T10:56:59.510Z,44.02
2017-03-30T10:58:09.533Z,44.02
2017-03-30T10:59:19.233Z,43.63
2017-03-30T11:00:29.200Z,43.54
2017-03-30T11:01:39.508Z,43.82
2017-03-30T11:02:49.166Z,43.82
2017-03-30T11:03:59.510Z,43.82
2017-03-30T11:05:09.801Z,43.73
2017-03-30T11:06:19.800Z,44.4
2017-03-30T11:07:29.755Z,44.31
2017-03-30T11:08:40.059Z,44.31
2017-03-30T11:09:50.366Z,44.31
2017-03-30T11:11:00.314Z,43.73
2017-03-30T11:12:10.282Z,43.82
2017-03-30T11:13:20.543Z,44.11
2017-03-30T11:14:30.801Z,43.82
2017-03-30T11:15:41.144Z,43.82
2017-03-30T11:16:50.785Z,43.63
2017-03-30T11:18:01.158Z,44.02
2017-03-30T11:19:11.445Z,44.21
2017-03-30T11:20:21.079Z,43.73
2017-03-30T11:21:31.370Z,43.63
2017-03-30T11:22:41.051Z,43.82
2017-03-30T11:23:50.776Z,43.73
2017-03-30T11:25:00.753Z,43.92
2017-03-30T11:26:11.086Z,44.21
2017-03-30T11:27:21.065Z,43.82
2017-03-30T11:28:31.039Z,44.02
2017-03-30T11:29:40.753Z,44.31
2017-03-30T11:30:51.031Z,43.92
2017-03-30T11:32:01.339Z,43.92
2017-03-30T11:33:11.379Z,43.92
2017-03-30T11:34:21.072Z,44.11
2017-03-30T11:35:31.334Z,43.92
2017-03-30T11:36:41.312Z,44.11
2017-03-30T11:37:51.001Z,43.73
2017-03-30T11:39:01.258Z,43.73
2017-03-30T11:40:10.926Z,43.63
2017-03-30T11:41:20.865Z,43.92
2017-03-30T11:42:31.130Z,43.73
2017-03-30T11:43:41.095Z,44.4
2017-03-30T11:44:50.783Z,43.63
2017-03-30T11:46:00.732Z,43.82
2017-03-30T11:47:10.784Z,43.82
2017-03-30T11:48:20.724Z,44.31
2017-03-30T11:49:30.417Z,44.31
2017-03-30T11:50:40.040Z,44.21
2017-03-30T11:51:49.679Z,43.92
2017-03-30T11:53:00.021Z,43.92
2017-03-30T11:54:09.969Z,43.82
2017-03-30T11:55:19.915Z,43.82
2017-03-30T11:56:29.936Z,43.82
2017-03-30T11:57:39.935Z,43.54
2017-03-30T11:58:49.629Z,43.82
2017-03-30T11:59:59.270Z,43.82
2017-03-30T12:01:09.254Z,43.73
2017-03-30T12:02:19.589Z,43.82
2017-03-30T12:03:28.910Z,43.82
2017-03-30T12:04:38.976Z,43.92
2017-03-30T12:05:48.712Z,43.82
2017-03-30T12:06:59.051Z,43.82
2017-03-30T12:08:09.041Z,43.54
2017-03-30T12:09:18.779Z,43.82
2017-03-30T12:10:28.807Z,43.44
2017-03-30T12:11:38.513Z,43.73
2017-03-30T12:12:48.523Z,43.54
2017-03-30T12:13:58.552Z,43.54
2017-03-30T12:15:08.567Z,43.54
2017-03-30T12:16:18.636Z,43.44
2017-03-30T12:17:28.279Z,43.63
2017-03-30T12:18:38.289Z,43.63
2017-03-30T12:19:47.947Z,43.73
2017-03-30T12:20:57.945Z,43.54
2017-03-30T12:22:08.262Z,43.54
2017-03-30T12:23:18.230Z,43.63
2017-03-30T12:24:28.494Z,43.44
2017-03-30T12:25:38.464Z,43.44
2017-03-30T12:26:48.430Z,43.44
2017-03-30T12:27:58.407Z,43.63
2017-03-30T12:29:08.101Z,43.44
2017-03-30T12:30:18.088Z,43.44
2017-03-30T12:31:27.420Z,43.34
2017-03-30T12:32:37.695Z,43.34
2017-03-30T12:33:47.993Z,43.63
2017-03-30T12:34:58.339Z,43.54
2017-03-30T12:36:08.631Z,43.44
2017-03-30T12:37:18.916Z,43.15
2017-03-30T12:38:29.272Z,43.63
2017-03-30T12:39:39.599Z,43.54
2017-03-30T12:40:49.560Z,43.44
2017-03-30T12:41:59.825Z,43.63
2017-03-30T12:43:10.126Z,43.63
2017-03-30T12:44:20.115Z,43.54
2017-03-30T12:45:29.790Z,43.24
2017-03-30T12:46:39.443Z,43.63
2017-03-30T12:47:49.077Z,43.73
2017-03-30T12:48:59.075Z,43.54
2017-03-30T12:50:09.044Z,43.63
2017-03-30T12:51:18.784Z,43.54
2017-03-30T12:52:28.735Z,43.54
2017-03-30T12:53:38.699Z,43.73
2017-03-30T12:54:48.710Z,43.44
2017-03-30T12:55:58.672Z,43.82
2017-03-30T12:57:09.033Z,43.73
2017-03-30T12:58:19.103Z,43.34
2017-03-30T12:59:28.768Z,43.44
2017-03-30T13:00:38.734Z,43.55
2017-03-30T13:01:48.750Z,43.34
2017-03-30T13:02:59.114Z,43.54
2017-03-30T13:04:08.773Z,43.54
2017-03-30T13:05:18.217Z,43.34
2017-03-30T13:06:28.525Z,43.44
2017-03-30T13:07:38.209Z,43.63
2017-03-30T13:08:48.454Z,43.82
2017-03-30T13:09:58.742Z,43.63
2017-03-30T13:11:08.755Z,43.73
2017-03-30T13:12:19.062Z,43.92
2017-03-30T13:13:29.426Z,43.85
2017-03-30T13:14:39.738Z,43.55
2017-03-30T13:15:49.682Z,43.75
2017-03-30T13:17:00.101Z,43.63
2017-03-30T13:18:10.073Z,44.11
2017-03-30T13:19:20.036Z,43.75
2017-03-30T13:20:30.123Z,43.92
2017-03-30T13:21:40.440Z,43.92
2017-03-30T13:22:50.834Z,44.21
2017-03-30T13:24:00.891Z,44.4
2017-03-30T13:25:11.217Z,44.23
2017-03-30T13:26:21.528Z,43.94
2017-03-30T13:27:31.580Z,44.11
2017-03-30T13:28:41.952Z,43.82
2017-03-30T13:29:51.627Z,44.21
2017-03-30T13:31:01.913Z,44.31
2017-03-30T13:32:11.892Z,44.04
2017-03-30T13:33:21.522Z,43.85
2017-03-30T13:34:31.791Z,44.13
2017-03-30T13:35:41.430Z,44.23
2017-03-30T13:36:51.392Z,44.13
2017-03-30T13:38:01.337Z,43.94
2017-03-30T13:39:11.690Z,43.85
2017-03-30T13:40:21.957Z,44.32
2017-03-30T13:41:32.266Z,44.52
2017-03-30T13:42:42.261Z,44.13
2017-03-30T13:43:52.230Z,44.13
2017-03-30T13:45:02.528Z,44.13
2017-03-30T13:46:12.491Z,44.13
2017-03-30T13:47:22.802Z,44.13
2017-03-30T13:48:32.504Z,44.81
2017-03-30T13:49:42.494Z,44.62
2017-03-30T13:50:52.501Z,44.71
2017-03-30T13:52:02.853Z,44.23
2017-03-30T13:53:13.183Z,44.23
2017-03-30T13:54:22.190Z,44.42
2017-03-30T13:55:32.141Z,44.04
2017-03-30T13:56:42.167Z,43.85
2017-03-30T13:57:52.149Z,44.13
2017-03-30T13:59:02.119Z,43.85
2017-03-30T14:00:12.111Z,43.94
2017-03-30T14:01:22.475Z,44.32
2017-03-30T14:02:32.442Z,43.85
2017-03-30T14:03:42.793Z,44.13
2017-03-30T14:04:52.888Z,44.13
2017-03-30T14:06:02.846Z,44.13
2017-03-30T14:07:13.088Z,43.94
2017-03-30T14:08:23.018Z,44.23
2017-03-30T14:09:33.262Z,43.94
2017-03-30T14:10:43.196Z,44.04
2017-03-30T14:11:53.140Z,43.94
2017-03-30T14:13:03.072Z,44.13
2017-03-30T14:14:13.313Z,44.23
2017-03-30T14:15:23.554Z,43.94
2017-03-30T14:16:33.795Z,43.94
2017-03-30T14:17:44.047Z,44.04
2017-03-30T14:18:54.361Z,44.13
2017-03-30T14:20:04.599Z,44.04
2017-03-30T14:21:14.866Z,44.23
2017-03-30T14:22:25.116Z,43.94
2017-03-30T14:23:35.051Z,44.13
2017-03-30T14:24:45.290Z,43.94
2017-03-30T14:25:55.533Z,44.04
2017-03-30T14:27:05.775Z,44.04
2017-03-30T14:28:15.706Z,44.04
2017-03-30T14:29:25.958Z,43.94
2017-03-30T14:30:36.199Z,44.04
2017-03-30T14:31:45.813Z,44.13
2017-03-30T14:32:55.737Z,43.75
2017-03-30T14:34:05.369Z,43.85
2017-03-30T14:35:15.297Z,43.94
2017-03-30T14:36:25.223Z,44.04
2017-03-30T14:37:35.467Z,43.75
2017-03-30T14:38:45.724Z,43.85
2017-03-30T14:39:55.976Z,43.55
2017-03-30T14:41:05.901Z,43.85
2017-03-30T14:42:15.529Z,43.85
2017-03-30T14:43:25.768Z,44.13
2017-03-30T14:44:36.102Z,44.04
2017-03-30T14:45:45.721Z,43.65
2017-03-30T14:46:55.657Z,43.75
2017-03-30T14:48:05.898Z,44.32
2017-03-30T14:49:15.829Z,43.94
2017-03-30T14:50:25.126Z,43.75
2017-03-30T14:51:35.062Z,43.75
2017-03-30T14:52:45.300Z,43.94
2017-03-30T14:53:55.535Z,44.32
2017-03-30T14:55:05.775Z,43.94
2017-03-30T14:56:15.406Z,43.75
2017-03-30T14:57:25.033Z,44.13
2017-03-30T14:58:35.269Z,44.32
2017-03-30T14:59:45.510Z,43.75
2017-03-30T15:00:55.121Z,43.94
2017-03-30T15:02:05.370Z,43.94